Hlavní strana
METAR-TAF:

METAR-TAF

Letiště :

Altenstadt, Německo

zeměpisná šířka: 47-50N, zeměpisná délka: 010-52E, výška: 739 m

Aktuální stav počasí

Zpráva byla vytvořena před 17 minutami, v 04:20 UTC
Severní vítr 2 kt
Teplota -3°C
Vlhkost vzduchu 93%
Tlak 1022 hPa

METAR: ETHA 180420Z AUTO 01002KT //// // ////// M03/M04 Q1022 ///

Čas: 05:37 (04:37 UTC)


TAF: chybějící

Stav a předpovědi počasí z více než 4 000 letišť (zprávy METAR a TAF).

Červené a žluté tečky na mapě představují dostupné meteorologické stanice.

Když kurzor umístíte na tečku, zobrazí se název stanice.

Pak kliknutím zobrazíte stav a předpověď počasí.

Chcete-li změnit mapu, kliknutím na zelené tlačítko se znaménkem +mapu přiblížíte, kliknutím na zelené tlačítko se znaménkem – mapu oddálíte a kliknutím na zelené šipky přejdete na sousední mapy.


METAR-TAF: